Air Quality Table

TIMESTAMP NO2 SO2 O3 PM10 PM2.5 CO TEMP HUM AIRPRES WS WD NO BENZENE
2021-08-04 06:00 29.17 ug/m3 0.13 ug/m3 68.93 ug/m3 26.87 ug/m3 20.58 ug/m3 0.37 mg/m3 28.44 C 73.17 % 1,013.32 mbar 1.3 m/s 197.82 Deg 2.91 ug/m3 1.05 ug/m3
2021-08-04 05:00 16.37 ug/m3 0.06 ug/m3 81.96 ug/m3 26.82 ug/m3 20 ug/m3 0.26 mg/m3 28.01 C 80.51 % 1,013.30 mbar 1.38 m/s 168.82 Deg 1.21 ug/m3 0.81 ug/m3
2021-08-04 04:00 13.81 ug/m3 0.11 ug/m3 79.59 ug/m3 23.95 ug/m3 22.64 ug/m3 0.22 mg/m3 28.11 C 80.91 % 1,013.37 mbar 1.09 m/s 164.37 Deg 0.34 ug/m3 0.79 ug/m3
2021-08-04 03:00 13.55 ug/m3 0.07 ug/m3 76.85 ug/m3 31.41 ug/m3 20.01 ug/m3 0.2 mg/m3 27.96 C 81.1 % 1,013.57 mbar 0.89 m/s 161.98 Deg -0.06 ug/m3 0.79 ug/m3
2021-08-04 02:00 15.48 ug/m3 0.07 ug/m3 82.25 ug/m3 50.73 ug/m3 27.66 ug/m3 0.2 mg/m3 28.1 C 81.3 % 1,013.92 mbar 1.27 m/s 134.02 Deg 0.9 ug/m3 0.65 ug/m3
2021-08-04 01:00 16.13 ug/m3 0.08 ug/m3 83.01 ug/m3 88.85 ug/m3 33.91 ug/m3 0.24 mg/m3 28.01 C 84.51 % 1,014.57 mbar 1.41 m/s 70.77 Deg 1.67 ug/m3 1.19 ug/m3
2021-08-04 00:00 35.03 ug/m3 0.11 ug/m3 62.89 ug/m3 114.21 ug/m3 22.34 ug/m3 0.28 mg/m3 28.1 C 85.15 % 1,015.07 mbar 2.48 m/s 58.35 Deg 5.24 ug/m3 1.21 ug/m3
2021-08-03 23:00 38.57 ug/m3 0.14 ug/m3 63.33 ug/m3 71.08 ug/m3 28.87 ug/m3 0.37 mg/m3 28.54 C 82.57 % 1,015.27 mbar 2.24 m/s 56.05 Deg 6.77 ug/m3 2.57 ug/m3
2021-08-03 22:00 57.42 ug/m3 0.24 ug/m3 40.98 ug/m3 84.6 ug/m3 21.59 ug/m3 0.46 mg/m3 28.81 C 77.29 % 1,015.37 mbar 1.67 m/s 50.38 Deg 16.35 ug/m3 2.76 ug/m3
2021-08-03 21:00 27 ug/m3 0.2 ug/m3 89.41 ug/m3 106.46 ug/m3 25.85 ug/m3 0.45 mg/m3 28.84 C 79.64 % 1,015.12 mbar 2.17 m/s 45.22 Deg 11.48 ug/m3 4.25 ug/m3
2021-08-03 20:00 37.82 ug/m3 0.29 ug/m3 82.17 ug/m3 54.18 ug/m3 19.01 ug/m3 0.51 mg/m3 29.18 C 76.07 % 1,014.69 mbar 2.28 m/s 56.6 Deg 16.56 ug/m3 3.23 ug/m3
2021-08-03 19:00 39.57 ug/m3 0.28 ug/m3 81.17 ug/m3 18.16 ug/m3 12.77 ug/m3 0.5 mg/m3 30.87 C 59.62 % 1,014.31 mbar 2.35 m/s 49.03 Deg 18.15 ug/m3 2.99 ug/m3
2021-08-03 18:00 33.63 ug/m3 0.31 ug/m3 79.82 ug/m3 20.28 ug/m3 18.16 ug/m3 0.48 mg/m3 30.34 C 65.97 % 1,014.09 mbar 2.82 m/s 46.52 Deg 21.82 ug/m3 5.74 ug/m3
2021-08-03 17:00 19.92 ug/m3 0.22 ug/m3 97.91 ug/m3 28.54 ug/m3 18.15 ug/m3 0.44 mg/m3 29.97 C 71.53 % 1,014.26 mbar 3.43 m/s 51.13 Deg 13.88 ug/m3 4.06 ug/m3
2021-08-03 16:00 13.63 ug/m3 0.2 ug/m3 92.92 ug/m3 48.66 ug/m3 9.84 ug/m3 0.35 mg/m3 29.89 C 72.66 % 1,014.48 mbar 3.81 m/s 51.35 Deg 14.69 ug/m3 1.91 ug/m3
2021-08-03 15:00 15.03 ug/m3 0.18 ug/m3 86.27 ug/m3 45.26 ug/m3 12.88 ug/m3 0.38 mg/m3 29.6 C 75.03 % 1,014.50 mbar 3.81 m/s 54.87 Deg 16.76 ug/m3 1.63 ug/m3
2021-08-03 14:00 16.3 ug/m3 0.24 ug/m3 80.4 ug/m3 36.65 ug/m3 18.98 ug/m3 0.33 mg/m3 29.56 C 78.99 % 1,014.80 mbar 3.62 m/s 57.68 Deg 13.81 ug/m3 2.34 ug/m3
2021-08-03 13:00 19.22 ug/m3 0.26 ug/m3 78.99 ug/m3 25.95 ug/m3 22.23 ug/m3 0.41 mg/m3 30.54 C 72.24 % 1,015.09 mbar 2.74 m/s 46.52 Deg 20.1 ug/m3 1.71 ug/m3
2021-08-03 12:00 20.69 ug/m3 0.27 ug/m3 78.91 ug/m3 26.8 ug/m3 15.57 ug/m3 0.4 mg/m3 30.1 C 76.26 % 1,015.23 mbar 2.69 m/s 37.23 Deg 17.51 ug/m3 3.44 ug/m3
2021-08-03 11:00 26.6 ug/m3 0.28 ug/m3 82.36 ug/m3 45.44 ug/m3 27.79 ug/m3 0.56 mg/m3 31.56 C 64.69 % 1,015.07 mbar 2.46 m/s 40.12 Deg 16.51 ug/m3 2.89 ug/m3
2021-08-03 10:00 31.02 ug/m3 0.43 ug/m3 60.93 ug/m3 83.67 ug/m3 37.22 ug/m3 0.48 mg/m3 30.2 C 75.35 % 1,014.59 mbar 2.06 m/s 52.02 Deg 28.12 ug/m3 5.7 ug/m3
2021-08-03 09:00 30.67 ug/m3 0.35 ug/m3 65.49 ug/m3 132.44 ug/m3 40.1 ug/m3 0.49 mg/m3 28.8 C 83.8 % 1,014.38 mbar 2.37 m/s 48.5 Deg 19.84 ug/m3 3.33 ug/m3
2021-08-03 08:00 40.46 ug/m3 0.43 ug/m3 42.27 ug/m3 138.66 ug/m3 35.52 ug/m3 0.65 mg/m3 28.63 C 85.31 % 1,013.84 mbar 1.94 m/s 48.38 Deg 28.01 ug/m3 6.51 ug/m3
2021-08-03 07:00 45.52 ug/m3 0.52 ug/m3 32.74 ug/m3 128.12 ug/m3 29.63 ug/m3 0.53 mg/m3 27.77 C 88.68 % 1,013.26 mbar 1.66 m/s 63.73 Deg 31.39 ug/m3 2.57 ug/m3
2021-08-03 06:00 19.34 ug/m3 0.24 ug/m3 68.76 ug/m3 125.21 ug/m3 23.41 ug/m3 0.41 mg/m3 27.88 C 89.61 % 1,013.04 mbar 2.13 m/s 53.92 Deg 13.62 ug/m3 3.88 ug/m3
2021-08-03 05:00 18.3 ug/m3 0.25 ug/m3 67.53 ug/m3 102.19 ug/m3 20.27 ug/m3 0.31 mg/m3 28.28 C 83.75 % 1,012.69 mbar 1.36 m/s 53.7 Deg 8.78 ug/m3 2.41 ug/m3
2021-08-03 04:00 17.01 ug/m3 0.27 ug/m3 60.28 ug/m3 67.48 ug/m3 16.89 ug/m3 0.22 mg/m3 29.14 C 72.82 % 1,012.76 mbar 0.94 m/s 110.72 Deg 1.82 ug/m3 4.17 ug/m3
2021-08-03 03:00 36.44 ug/m3 0.33 ug/m3 38.37 ug/m3 58.38 ug/m3 9.38 ug/m3 0.17 mg/m3 29.39 C 66.1 % 1,012.69 mbar 0.76 m/s 131.5 Deg 1.68 ug/m3 3.97 ug/m3
2021-08-03 02:00 26.78 ug/m3 0.25 ug/m3 64.32 ug/m3 44.34 ug/m3 12.3 ug/m3 0.27 mg/m3 29.86 C 58.13 % 1,012.91 mbar 0.84 m/s 49.85 Deg 2.59 ug/m3 3.39 ug/m3
2021-08-03 01:00 54.62 ug/m3 0.23 ug/m3 34.48 ug/m3 60.11 ug/m3 17.57 ug/m3 0.29 mg/m3 30.16 C 54.35 % 1,013.31 mbar 0.75 m/s 111.8 Deg 6.77 ug/m3 1.68 ug/m3
2021-08-03 00:00 30.73 ug/m3 0.28 ug/m3 62.77 ug/m3 111.3 ug/m3 25 ug/m3 0.27 mg/m3 29.52 C 65.1 % 1,013.74 mbar 1.32 m/s 55.98 Deg 9.56 ug/m3 2.59 ug/m3
2021-08-02 23:00 29.39 ug/m3 0.35 ug/m3 56.28 ug/m3 101.75 ug/m3 21.88 ug/m3 0.46 mg/m3 30.2 C 61.57 % 1,013.77 mbar 1.5 m/s 60.32 Deg 11.68 ug/m3 4.15 ug/m3
2021-08-02 22:00 45.57 ug/m3 0.56 ug/m3 40.75 ug/m3 74.47 ug/m3 21.71 ug/m3 0.61 mg/m3 31.1 C 49.55 % 1,013.69 mbar 1.54 m/s 58.32 Deg 20.06 ug/m3 4.23 ug/m3
2021-08-02 21:00 58.36 ug/m3 0.69 ug/m3 31.19 ug/m3 45.11 ug/m3 9.86 ug/m3 1.02 mg/m3 32.14 C 44.09 % 1,013.13 mbar 1.08 m/s 125.87 Deg 24.51 ug/m3 3.39 ug/m3
2021-08-02 20:00 64.92 ug/m3 0.33 ug/m3 42.13 ug/m3 23.69 ug/m3 12.81 ug/m3 0.4 mg/m3 33.71 C 28.19 % 1,012.72 mbar 1.06 m/s 211.23 Deg 13.53 ug/m3 1.23 ug/m3
2021-08-02 19:00 45.56 ug/m3 0.17 ug/m3 50.16 ug/m3 32.01 ug/m3 17.86 ug/m3 0.31 mg/m3 34.87 C 22.41 % 1,012.34 mbar 1.68 m/s 254.52 Deg 4.64 ug/m3 1.97 ug/m3
2021-08-02 18:00 42.87 ug/m3 0.36 ug/m3 54.81 ug/m3 62.11 ug/m3 29.86 ug/m3 0.49 mg/m3 33.52 C 46.6 % 1,012.07 mbar 1.93 m/s 90.53 Deg 18.56 ug/m3 3.02 ug/m3
2021-08-02 17:00 32.51 ug/m3 0.35 ug/m3 76.4 ug/m3 65.92 ug/m3 23.37 ug/m3 0.57 mg/m3 32.69 C 58.3 % 1,012.10 mbar 2.46 m/s 62.6 Deg 21.19 ug/m3 1.36 ug/m3
2021-08-02 16:00 30.67 ug/m3 0.28 ug/m3 83.84 ug/m3 55.8 ug/m3 16.56 ug/m3 0.49 mg/m3 33.16 C 54.3 % 1,012.30 mbar 2.81 m/s 61.35 Deg 20.48 ug/m3 1.6 ug/m3
2021-08-02 15:00 26.63 ug/m3 0.29 ug/m3 92.37 ug/m3 59.34 ug/m3 17.74 ug/m3 0.4 mg/m3 33.29 C 51.1 % 1,012.51 mbar 3.32 m/s 62.83 Deg 16.65 ug/m3 1.89 ug/m3
2021-08-02 14:00 29.37 ug/m3 0.32 ug/m3 90.18 ug/m3 51.4 ug/m3 27.04 ug/m3 0.47 mg/m3 34 C 51.26 % 1,012.59 mbar 2.85 m/s 51.38 Deg 19.83 ug/m3 1.65 ug/m3
2021-08-02 13:00 32.75 ug/m3 0.31 ug/m3 97.69 ug/m3 57.89 ug/m3 28 ug/m3 0.41 mg/m3 32.98 C 54.37 % 1,012.84 mbar 2.62 m/s 50.32 Deg 18.38 ug/m3 3.22 ug/m3
2021-08-02 12:00 29.64 ug/m3 0.3 ug/m3 93.82 ug/m3 50.98 ug/m3 15.01 ug/m3 0.39 mg/m3 31.65 C 59.15 % 1,012.89 mbar 2.89 m/s 57.55 Deg 19.47 ug/m3 1.6 ug/m3
2021-08-02 11:00 30.94 ug/m3 0.35 ug/m3 84.95 ug/m3 49.78 ug/m3 24.31 ug/m3 0.4 mg/m3 31.95 C 55.52 % 1,012.75 mbar 2.8 m/s 52.23 Deg 22.55 ug/m3 2.68 ug/m3
2021-08-02 10:00 33.68 ug/m3 0.35 ug/m3 75.76 ug/m3 78.39 ug/m3 42.94 ug/m3 0.41 mg/m3 31.39 C 57.85 % 1,012.58 mbar 2.39 m/s 56.3 Deg 26.48 ug/m3 1.94 ug/m3
2021-08-02 09:00 38.03 ug/m3 0.45 ug/m3 65.14 ug/m3 110.07 ug/m3 40.02 ug/m3 0.47 mg/m3 30.99 C 62.01 % 1,012.44 mbar 2.01 m/s 54.13 Deg 26.36 ug/m3 2.44 ug/m3
2021-08-02 08:00 41.88 ug/m3 0.43 ug/m3 52.85 ug/m3 127.47 ug/m3 36.01 ug/m3 0.52 mg/m3 30.67 C 63.51 % 1,012.27 mbar 0.88 m/s 176.77 Deg 23.8 ug/m3 3.65 ug/m3
2021-08-02 07:00 61.13 ug/m3 0.49 ug/m3 30.66 ug/m3 94.89 ug/m3 25.41 ug/m3 0.51 mg/m3 30.09 C 58.82 % 1,011.95 mbar 1.07 m/s 266.7 Deg 18.7 ug/m3 6.56 ug/m3
2021-08-02 06:00 79.63 ug/m3 1.35 ug/m3 6.52 ug/m3 75.11 ug/m3 19.04 ug/m3 0.64 mg/m3 29.91 C 47.71 % 1,011.56 mbar 0.75 m/s 322.13 Deg 73.75 ug/m3 8.24 ug/m3
2021-08-02 05:00 52.81 ug/m3 0.64 ug/m3 26.97 ug/m3 45.53 ug/m3 14.71 ug/m3 0.48 mg/m3 29.75 C 48.42 % 1,011.27 mbar 0.6 m/s 162 Deg 27.8 ug/m3 2.33 ug/m3
2021-08-02 04:00 19.81 ug/m3 0.22 ug/m3 66.98 ug/m3 40.83 ug/m3 10.86 ug/m3 0.2 mg/m3 30.63 C 43.06 % 1,011.08 mbar 0.8 m/s 255.65 Deg 1.7 ug/m3 1.94 ug/m3
2021-08-02 03:00 18.37 ug/m3 0.12 ug/m3 58.84 ug/m3 31.04 ug/m3 8.44 ug/m3 0.15 mg/m3 30.72 C 47.05 % 1,011.08 mbar 0.72 m/s 248.13 Deg 0.85 ug/m3 1.21 ug/m3
2021-08-02 02:00 17.53 ug/m3 0.09 ug/m3 75.92 ug/m3 33.79 ug/m3 14.38 ug/m3 0.24 mg/m3 30.91 C 45.32 % 1,011.35 mbar 0.44 m/s 259.81 Deg 0.49 ug/m3 0.86 ug/m3
2021-08-02 01:00 16.08 ug/m3 0.06 ug/m3 84.87 ug/m3 52.95 ug/m3 23.26 ug/m3 0.22 mg/m3 30.5 C 50.61 % 1,011.46 mbar 0.84 m/s 324.57 Deg 0.73 ug/m3 0.58 ug/m3
2021-08-02 00:00 10.06 ug/m3 0.05 ug/m3 73.5 ug/m3 70.2 ug/m3 32.82 ug/m3 0.22 mg/m3 29.74 C 66.59 % 1,011.69 mbar 1.33 m/s 313.98 Deg 0.56 ug/m3 2.45 ug/m3
2021-08-01 23:00 20.24 ug/m3 0.12 ug/m3 55.56 ug/m3 68.91 ug/m3 28.57 ug/m3 0.35 mg/m3 30.49 C 61.94 % 1,011.96 mbar 0.96 m/s 326.12 Deg 4.38 ug/m3 2.24 ug/m3
2021-08-01 22:00 51.19 ug/m3 0.32 ug/m3 50.34 ug/m3 100.44 ug/m3 31.38 ug/m3 0.43 mg/m3 31.33 C 47.2 % 1,012.12 mbar 1.18 m/s 239.68 Deg 11.7 ug/m3 4.69 ug/m3
2021-08-01 21:00 69.88 ug/m3 0.93 ug/m3 11.1 ug/m3 107.44 ug/m3 31.09 ug/m3 0.97 mg/m3 30.93 C 56.46 % 1,011.89 mbar 1.26 m/s 61.42 Deg 45.91 ug/m3 7.93 ug/m3
2021-08-01 20:00 85.78 ug/m3 1.15 ug/m3 7.34 ug/m3 90.11 ug/m3 23.08 ug/m3 1.47 mg/m3 31.03 C 59.64 % 1,011.49 mbar 1.44 m/s 58.1 Deg 68.29 ug/m3 9.5 ug/m3
2021-08-01 19:00 62.86 ug/m3 0.61 ug/m3 40.09 ug/m3 107.23 ug/m3 28.07 ug/m3 1.08 mg/m3 32.19 C 49.9 % 1,011.07 mbar 1.71 m/s 54.43 Deg 30.09 ug/m3 4.55 ug/m3
2021-08-01 18:00 36.18 ug/m3 0.32 ug/m3 61.65 ug/m3 67.01 ug/m3 17.28 ug/m3 0.52 mg/m3 32.59 C 53.82 % 1,010.96 mbar 2.01 m/s 125.92 Deg 16.33 ug/m3 1.19 ug/m3
2021-08-01 17:00 12.7 ug/m3 0.12 ug/m3 79.49 ug/m3 56.49 ug/m3 22.27 ug/m3 0.16 mg/m3 37.34 C 17.35 % 1,010.87 mbar 2.04 m/s 199.9 Deg 2.37 ug/m3 0.52 ug/m3
2021-08-01 16:00 13.32 ug/m3 0.13 ug/m3 86.55 ug/m3 69.55 ug/m3 19.42 ug/m3 0.3 mg/m3 37 C 23.14 % 1,010.96 mbar 2.17 m/s 166.73 Deg 5.94 ug/m3 1.42 ug/m3
2021-08-01 15:00 19.86 ug/m3 0.15 ug/m3 104.34 ug/m3 61.58 ug/m3 18.14 ug/m3 0.34 mg/m3 35.41 C 37.14 % 1,011.02 mbar 2.3 m/s 47.38 Deg 8.17 ug/m3 1.05 ug/m3
2021-08-01 14:00 13.56 ug/m3 0.15 ug/m3 98.2 ug/m3 43.58 ug/m3 21.37 ug/m3 0.24 mg/m3 36.88 C 27.56 % 1,011.20 mbar 2.04 m/s 149.35 Deg 6.3 ug/m3 0.56 ug/m3
2021-08-01 13:00 16.48 ug/m3 0.12 ug/m3 91.97 ug/m3 35.45 ug/m3 15.33 ug/m3 0.22 mg/m3 37.47 C 21.14 % 1,011.35 mbar 1.82 m/s 174.13 Deg 4.34 ug/m3 0.79 ug/m3
2021-08-01 12:00 25.92 ug/m3 0.24 ug/m3 94.09 ug/m3 47.37 ug/m3 16.53 ug/m3 0.37 mg/m3 35.92 C 27.11 % 1,011.65 mbar 1.6 m/s 217.62 Deg 10.51 ug/m3 3.23 ug/m3
2021-08-01 11:00 29.19 ug/m3 0.35 ug/m3 87.06 ug/m3 61.67 ug/m3 26.73 ug/m3 0.48 mg/m3 33.58 C 38.87 % 1,011.71 mbar 2.32 m/s 124.47 Deg 11.71 ug/m3 2.81 ug/m3
2021-08-01 10:00 35.39 ug/m3 0.36 ug/m3 72.13 ug/m3 81.17 ug/m3 25.85 ug/m3 0.52 mg/m3 32.57 C 49.18 % 1,011.52 mbar 2.87 m/s 48.42 Deg 16.15 ug/m3 3.99 ug/m3
2021-08-01 09:00 48.1 ug/m3 0.58 ug/m3 39.64 ug/m3 83.43 ug/m3 27.15 ug/m3 0.56 mg/m3 32.23 C 51.21 % 1,011.37 mbar 1.91 m/s 46.18 Deg 33.45 ug/m3 1.47 ug/m3
2021-08-01 08:00 32.05 ug/m3 0.3 ug/m3 54.87 ug/m3 93.61 ug/m3 39.61 ug/m3 0.39 mg/m3 32 C 47.81 % 1,011.49 mbar 1.02 m/s 220.17 Deg 11.7 ug/m3 1.66 ug/m3
2021-08-01 07:00 17.74 ug/m3 0.16 ug/m3 60.37 ug/m3 89.73 ug/m3 29.18 ug/m3 0.31 mg/m3 30.4 C 56.13 % 1,011.00 mbar 1.37 m/s 246.9 Deg 2.94 ug/m3 1.1 ug/m3
2021-08-01 06:00 45.47 ug/m3 0.11 ug/m3 62.43 ug/m3 79.44 ug/m3 22.67 ug/m3 0.23 mg/m3 29.68 C 55.03 % 1,010.61 mbar 2.29 m/s 243.97 Deg 0.85 ug/m3 2.75 ug/m3
2021-08-01 05:00 41.76 ug/m3 0.31 ug/m3 26.25 ug/m3 62.39 ug/m3 22.35 ug/m3 0.34 mg/m3 29.59 C 42.44 % 1,009.59 mbar 1.25 m/s 236.2 Deg 3.23 ug/m3 2.99 ug/m3
2021-08-01 04:00 32.2 ug/m3 0.3 ug/m3 25.42 ug/m3 57.57 ug/m3 20.43 ug/m3 0.3 mg/m3 29.66 C 45.05 % 1,009.44 mbar 0.78 m/s 232.13 Deg 2.74 ug/m3 4.41 ug/m3
2021-08-01 03:00 36.72 ug/m3 0.35 ug/m3 21.52 ug/m3 60.57 ug/m3 17.63 ug/m3 0.29 mg/m3 29.96 C 44.85 % 1,010.07 mbar 0.35 m/s 289.19 Deg 2.39 ug/m3 4.72 ug/m3
2021-08-01 02:00 33.01 ug/m3 0.2 ug/m3 42.16 ug/m3 49.23 ug/m3 25.5 ug/m3 0.45 mg/m3 30.42 C 46.78 % 1,010.85 mbar 0.55 m/s 309.52 Deg 7.91 ug/m3 1.68 ug/m3
2021-08-01 01:00 30.57 ug/m3 0.2 ug/m3 40.44 ug/m3 65.06 ug/m3 28.39 ug/m3 0.39 mg/m3 30.08 C 57.19 % 1,011.34 mbar 0.77 m/s 211.23 Deg 3.69 ug/m3 4.99 ug/m3
2021-08-01 00:00 46.94 ug/m3 0.36 ug/m3 23.67 ug/m3 53.94 ug/m3 16.34 ug/m3 0.54 mg/m3 30.27 C 60.51 % 1,011.48 mbar 0.51 m/s 140.54 Deg 13.91 ug/m3 2.83 ug/m3
2021-07-31 23:00 58.35 ug/m3 0.44 ug/m3 23.46 ug/m3 48.97 ug/m3 27.53 ug/m3 0.53 mg/m3 30.55 C 52.77 % 1,011.28 mbar 0.6 m/s 150.53 Deg 20.37 ug/m3 4.22 ug/m3
2021-07-31 22:00 48.38 ug/m3 0.49 ug/m3 48.44 ug/m3 80.8 ug/m3 25.41 ug/m3 0.61 mg/m3 29.58 C 66.06 % 1,011.24 mbar 0.8 m/s 61.12 Deg 29.03 ug/m3 7.16 ug/m3
2021-07-31 21:00 24.18 ug/m3 0.24 ug/m3 70.63 ug/m3 83.16 ug/m3 21.69 ug/m3 0.52 mg/m3 30 C 68.14 % 1,011.02 mbar 1.15 m/s 45.9 Deg 12.92 ug/m3 2.73 ug/m3
2021-07-31 20:00 27.08 ug/m3 0.35 ug/m3 63.06 ug/m3 81.67 ug/m3 26.92 ug/m3 0.59 mg/m3 29.96 C 66.89 % 1,010.37 mbar 1.69 m/s 56.42 Deg 19.47 ug/m3 2.2 ug/m3
2021-07-31 19:00 25.53 ug/m3 0.29 ug/m3 68.27 ug/m3 80.47 ug/m3 25.97 ug/m3 0.58 mg/m3 30.11 C 66.49 % 1,009.90 mbar 2.51 m/s 57.5 Deg 14.36 ug/m3 1.87 ug/m3
2021-07-31 18:00 28.87 ug/m3 0.36 ug/m3 71.08 ug/m3 49.53 ug/m3 18.08 ug/m3 0.45 mg/m3 31.21 C 58.85 % 1,009.62 mbar 2.07 m/s 60.18 Deg 17.09 ug/m3 1.7 ug/m3
2021-07-31 17:00 17.32 ug/m3 0.19 ug/m3 83.48 ug/m3 48.99 ug/m3 28 ug/m3 0.42 mg/m3 30.72 C 60.71 % 1,009.81 mbar 2.91 m/s 61.08 Deg 11.44 ug/m3 1.47 ug/m3
2021-07-31 16:00 21.41 ug/m3 0.18 ug/m3 77.34 ug/m3 56.15 ug/m3 22.29 ug/m3 0.46 mg/m3 30.64 C 63.4 % 1,010.12 mbar 3.18 m/s 62.27 Deg 11.12 ug/m3 1.57 ug/m3
2021-07-31 15:00 16.17 ug/m3 0.11 ug/m3 77.93 ug/m3 75.73 ug/m3 23.71 ug/m3 0.36 mg/m3 30.18 C 67.84 % 1,010.35 mbar 3.31 m/s 61.87 Deg 11.33 ug/m3 1.44 ug/m3
2021-07-31 14:00 18.8 ug/m3 0.22 ug/m3 84.07 ug/m3 65.51 ug/m3 32.65 ug/m3 0.35 mg/m3 29.8 C 71.74 % 1,010.55 mbar 3.7 m/s 59.9 Deg 9.03 ug/m3 1.21 ug/m3
2021-07-31 13:00 18.84 ug/m3 0.23 ug/m3 88.83 ug/m3 73.96 ug/m3 27.57 ug/m3 0.4 mg/m3 30.87 C 64.19 % 1,010.67 mbar 3.23 m/s 52.55 Deg 12.35 ug/m3 1.68 ug/m3
2021-07-31 12:00 21.12 ug/m3 0.32 ug/m3 90.84 ug/m3 86.33 ug/m3 32.19 ug/m3 0.42 mg/m3 30.06 C 66.99 % 1,010.85 mbar 3.92 m/s 54.47 Deg 11.41 ug/m3 3.22 ug/m3
2021-07-31 11:00 45.02 ug/m3 0.49 ug/m3 69.03 ug/m3 68.64 ug/m3 15.67 ug/m3 0.71 mg/m3 33.26 C 47.23 % 1,010.71 mbar 2.94 m/s 59.75 Deg 23.07 ug/m3 2.5 ug/m3
2021-07-31 10:00 36.95 ug/m3 0.31 ug/m3 70.57 ug/m3 70.33 ug/m3 25.64 ug/m3 0.34 mg/m3 35.55 C 27.93 % 1,011.06 mbar 1.56 m/s 215.55 Deg 14.17 ug/m3 1.44 ug/m3
2021-07-31 09:00 41.38 ug/m3 0.24 ug/m3 56.25 ug/m3 83.86 ug/m3 33.35 ug/m3 0.32 mg/m3 34.68 C 28.22 % 1,011.18 mbar 2.15 m/s 251.32 Deg 11.04 ug/m3 2.07 ug/m3
2021-07-31 08:00 36.62 ug/m3 0.19 ug/m3 60.08 ug/m3 95.8 ug/m3 28.62 ug/m3 0.32 mg/m3 31.91 C 44.13 % 1,010.97 mbar 1.95 m/s 231.87 Deg 6.73 ug/m3 2.45 ug/m3
2021-07-31 07:00 56.17 ug/m3 0.52 ug/m3 31.26 ug/m3 64.03 ug/m3 21.6 ug/m3 0.4 mg/m3 29.86 C 52.52 % 1,010.53 mbar 1.28 m/s 232.08 Deg 13.59 ug/m3 6.61 ug/m3
2021-07-31 06:00 32.56 ug/m3 0.17 ug/m3 51.01 ug/m3 58.59 ug/m3 15.62 ug/m3 0.35 mg/m3 28.78 C 58.96 % 1,009.99 mbar 1.21 m/s 222.55 Deg 4.05 ug/m3 1.1 ug/m3
2021-07-31 05:00 14.57 ug/m3 0.11 ug/m3 73.43 ug/m3 49.23 ug/m3 22.03 ug/m3 0.2 mg/m3 28.4 C 62.37 % 1,010.03 mbar 1.43 m/s 188.28 Deg 0.39 ug/m3 0.77 ug/m3
2021-07-31 04:00 10.35 ug/m3 0.41 ug/m3 82.8 ug/m3 43.15 ug/m3 19.12 ug/m3 0.18 mg/m3 28.69 C 60.64 % 1,009.95 mbar 1.75 m/s 198.85 Deg 0.03 ug/m3 0.49 ug/m3
2021-07-31 03:00 5.69 ug/m3 0.08 ug/m3 86.78 ug/m3 18.37 ug/m3 14.26 ug/m3 0.13 mg/m3 29.01 C 55.99 % 1,010.48 mbar 1.8 m/s 222.83 Deg -0.09 ug/m3 0.44 ug/m3
2021-07-31 02:00 6.11 ug/m3 0.13 ug/m3 86.63 ug/m3 5.45 ug/m3 15.94 ug/m3 0.17 mg/m3 29.32 C 50.78 % 1,010.78 mbar 1.97 m/s 218.05 Deg -0.15 ug/m3 0.58 ug/m3
2021-07-31 01:00 12.67 ug/m3 0.2 ug/m3 74.12 ug/m3 2.38 ug/m3 25.08 ug/m3 0.19 mg/m3 29.85 C 45.86 % 1,011.38 mbar 1.34 m/s 199.17 Deg 0.11 ug/m3 0.84 ug/m3
2021-07-31 00:00 17.87 ug/m3 0.17 ug/m3 63.98 ug/m3 1.91 ug/m3 21.54 ug/m3 0.21 mg/m3 30.29 C 40.98 % 1,011.73 mbar 1.13 m/s 190.93 Deg 0.08 ug/m3 1.26 ug/m3
2021-07-30 23:00 27.12 ug/m3 0.18 ug/m3 52.69 ug/m3 1.91 ug/m3 16.11 ug/m3 0.3 mg/m3 30.69 C 38.89 % 1,011.88 mbar 0.62 m/s 206.28 Deg 1.51 ug/m3 1.97 ug/m3
2021-07-30 22:00 18.54 ug/m3 0.26 ug/m3 60.35 ug/m3 1.91 ug/m3 20.28 ug/m3 0.26 mg/m3 30.1 C 47.55 % 1,011.77 mbar 0.98 m/s 206.6 Deg 1.1 ug/m3 0.97 ug/m3
2021-07-30 21:00 20.5 ug/m3 0.23 ug/m3 62.27 ug/m3 1.91 ug/m3 20.87 ug/m3 0.25 mg/m3 30.82 C 41.63 % 1,011.78 mbar 1.75 m/s 222.65 Deg 1.43 ug/m3 1.28 ug/m3
2021-07-30 20:00 24.14 ug/m3 0.22 ug/m3 57.64 ug/m3 1.91 ug/m3 16.32 ug/m3 0.24 mg/m3 31.84 C 32.92 % 1,011.50 mbar 1.77 m/s 216.47 Deg 1.96 ug/m3 1.05 ug/m3
2021-07-30 19:00 24.48 ug/m3 0.24 ug/m3 54.25 ug/m3 1.91 ug/m3 21.21 ug/m3 0.21 mg/m3 33.47 C 24.45 % 1,011.43 mbar 2.1 m/s 223.2 Deg 3.56 ug/m3 0.86 ug/m3
2021-07-30 18:00 21.16 ug/m3 0.28 ug/m3 56.62 ug/m3 1.91 ug/m3 27.08 ug/m3 0.19 mg/m3 34.34 C 23.68 % 1,011.52 mbar 2.53 m/s 231.33 Deg 4.27 ug/m3 1 ug/m3
2021-07-30 17:00 26.58 ug/m3 0.31 ug/m3 54.13 ug/m3 1.91 ug/m3 21.49 ug/m3 0.18 mg/m3 35.43 C 19.99 % 1,011.71 mbar 3.23 m/s 238.38 Deg 9.7 ug/m3 0.61 ug/m3
2021-07-30 16:00 19.64 ug/m3 0.31 ug/m3 63.59 ug/m3 1.91 ug/m3 18.49 ug/m3 0.18 mg/m3 35.76 C 19.91 % 1,012.15 mbar 3.21 m/s 238.13 Deg 4.68 ug/m3 0.7 ug/m3
2021-07-30 15:00 19.33 ug/m3 0.26 ug/m3 68.15 ug/m3 1.91 ug/m3 15.07 ug/m3 0.17 mg/m3 36.12 C 20.56 % 1,012.61 mbar 2.92 m/s 231.42 Deg 4.32 ug/m3 0.77 ug/m3
2021-07-30 14:00 22.15 ug/m3 0.27 ug/m3 69.79 ug/m3 1.91 ug/m3 18.1 ug/m3 0.19 mg/m3 36.28 C 21.06 % 1,012.96 mbar 2.81 m/s 236.18 Deg 4.94 ug/m3 1.12 ug/m3
2021-07-30 13:00 24.03 ug/m3 0.27 ug/m3 72.78 ug/m3 1.91 ug/m3 14.03 ug/m3 0.2 mg/m3 35.62 C 23.32 % 1,013.27 mbar 2.89 m/s 233.23 Deg 5.95 ug/m3 1.1 ug/m3
2021-07-30 12:00 24.26 ug/m3 0.31 ug/m3 74.52 ug/m3 1.91 ug/m3 23.27 ug/m3 0.2 mg/m3 35.84 C 20.6 % 1,013.59 mbar 2.73 m/s 234.1 Deg 5.19 ug/m3 0.94 ug/m3
2021-07-30 11:00 27.36 ug/m3 0.3 ug/m3 68.6 ug/m3 1.91 ug/m3 16.87 ug/m3 0.21 mg/m3 36.37 C 17.47 % 1,013.77 mbar 2.5 m/s 231.17 Deg 7.05 ug/m3 1.61 ug/m3
2021-07-30 10:00 40.61 ug/m3 0.42 ug/m3 61.27 ug/m3 1.91 ug/m3 21.76 ug/m3 0.28 mg/m3 35.91 C 18.34 % 1,014.05 mbar 1.92 m/s 249.9 Deg 11.2 ug/m3 2.03 ug/m3
2021-07-30 09:00 48.08 ug/m3 0.48 ug/m3 55.77 ug/m3 1.91 ug/m3 18.26 ug/m3 0.33 mg/m3 34.22 C 21.62 % 1,013.93 mbar 1.79 m/s 260.68 Deg 11.93 ug/m3 2.05 ug/m3
2021-07-30 08:00 61.83 ug/m3 0.59 ug/m3 43.01 ug/m3 1.91 ug/m3 24.59 ug/m3 0.39 mg/m3 32.24 C 29.35 % 1,013.74 mbar 1.14 m/s 249.35 Deg 18.9 ug/m3 3.65 ug/m3
2021-07-30 07:00 67.9 ug/m3 0.65 ug/m3 33.14 ug/m3 67.19 ug/m3 26.83 ug/m3 0.5 mg/m3 29.98 C 41.99 % 1,013.29 mbar 0.66 m/s 228.68 Deg 15.85 ug/m3 3.07 ug/m3
2021-07-30 06:00 51.11 ug/m3 0.53 ug/m3 40.99 ug/m3 36.6 ug/m3 20.47 ug/m3 0.48 mg/m3 28.4 C 47.75 % 1,012.97 mbar 0.52 m/s 235.19 Deg 13.82 ug/m3 1.47 ug/m3
2021-07-30 05:00 39.95 ug/m3 0.33 ug/m3 47 ug/m3 25.37 ug/m3 6.26 ug/m3 0.25 mg/m3 28.21 C 46.04 % 1,012.79 mbar 0.59 m/s 219.15 Deg 2.36 ug/m3 1.89 ug/m3
2021-07-30 04:00 30.84 ug/m3 0.59 ug/m3 48.74 ug/m3 34.8 ug/m3 9.51 ug/m3 0.2 mg/m3 28.59 C 34.25 % 1,012.76 mbar 0.62 m/s 224.52 Deg 1.87 ug/m3 1.4 ug/m3
2021-07-30 03:00 26.88 ug/m3 0.28 ug/m3 60.17 ug/m3 35.61 ug/m3 10.49 ug/m3 0.17 mg/m3 29 C 32.55 % 1,013.04 mbar 0.9 m/s 242.33 Deg 0.04 ug/m3 1.05 ug/m3
2021-07-30 02:00 14.98 ug/m3 0.22 ug/m3 82.85 ug/m3 29.13 ug/m3 11.51 ug/m3 0.17 mg/m3 29.39 C 32.93 % 1,013.42 mbar 0.76 m/s 232.68 Deg -0.14 ug/m3 0.92 ug/m3
2021-07-30 01:00 26.19 ug/m3 0.24 ug/m3 70.04 ug/m3 33.59 ug/m3 16.13 ug/m3 0.22 mg/m3 30.01 C 29.15 % 1,013.67 mbar 0.49 m/s 244.87 Deg 0.25 ug/m3 0.89 ug/m3
2021-07-30 00:00 18.82 ug/m3 0.19 ug/m3 83.47 ug/m3 48.23 ug/m3 20.9 ug/m3 0.22 mg/m3 30.2 C 28.99 % 1,013.84 mbar 1.04 m/s 234.38 Deg 0.01 ug/m3 1.15 ug/m3
2021-07-29 23:00 41.99 ug/m3 0.27 ug/m3 55.74 ug/m3 54.19 ug/m3 10.23 ug/m3 0.34 mg/m3 30.66 C 31.21 % 1,014.02 mbar 0.79 m/s 238.7 Deg 1.36 ug/m3 1.82 ug/m3
2021-07-29 22:00 47.69 ug/m3 0.25 ug/m3 63.58 ug/m3 50.86 ug/m3 15.87 ug/m3 0.36 mg/m3 31.31 C 28.79 % 1,013.96 mbar 0.96 m/s 267.03 Deg 3.22 ug/m3 2.05 ug/m3
2021-07-29 21:00 35.22 ug/m3 0.21 ug/m3 66.49 ug/m3 42.57 ug/m3 9.27 ug/m3 0.31 mg/m3 31.8 C 28.67 % 1,013.83 mbar 0.78 m/s 219.45 Deg 0.59 ug/m3 1.34 ug/m3
2021-07-29 20:00 36.77 ug/m3 0.22 ug/m3 72.51 ug/m3 52.57 ug/m3 10.74 ug/m3 0.31 mg/m3 32.27 C 27.59 % 1,013.50 mbar 1.3 m/s 233.92 Deg 1.42 ug/m3 1.45 ug/m3
2021-07-29 19:00 36.72 ug/m3 0.25 ug/m3 72.97 ug/m3 43.67 ug/m3 14.81 ug/m3 0.32 mg/m3 33.54 C 25.52 % 1,013.15 mbar 1.58 m/s 256.08 Deg 2.74 ug/m3 1.82 ug/m3
2021-07-29 18:00 35.57 ug/m3 0.27 ug/m3 72.68 ug/m3 45.02 ug/m3 16.94 ug/m3 0.29 mg/m3 34.59 C 25 % 1,013.07 mbar 1.93 m/s 260.9 Deg 4.98 ug/m3 1.03 ug/m3
2021-07-29 17:00 28.72 ug/m3 0.25 ug/m3 81.03 ug/m3 50.67 ug/m3 12.71 ug/m3 0.26 mg/m3 34.95 C 26.29 % 1,013.15 mbar 2.52 m/s 262.38 Deg 4.4 ug/m3 1.19 ug/m3
2021-07-29 16:00 28.09 ug/m3 0.26 ug/m3 83.32 ug/m3 52.88 ug/m3 12.04 ug/m3 0.27 mg/m3 35.14 C 28.39 % 1,013.47 mbar 2.5 m/s 272.15 Deg 4.26 ug/m3 0.84 ug/m3
2021-07-29 15:00 27.4 ug/m3 0.26 ug/m3 86.8 ug/m3 40.12 ug/m3 11.08 ug/m3 0.25 mg/m3 35.2 C 29.02 % 1,013.71 mbar 2.2 m/s 303.17 Deg 5.92 ug/m3 1.02 ug/m3
2021-07-29 14:00 26.5 ug/m3 0.22 ug/m3 90.81 ug/m3 31.82 ug/m3 10.73 ug/m3 0.23 mg/m3 34.77 C 28.84 % 1,013.98 mbar 2.61 m/s 306.07 Deg 5.08 ug/m3 0.61 ug/m3
2021-07-29 13:00 29.13 ug/m3 0.34 ug/m3 90.33 ug/m3 46.58 ug/m3 17.52 ug/m3 0.24 mg/m3 34.31 C 24.26 % 1,014.48 mbar 2.44 m/s 304.88 Deg 8.1 ug/m3 1.05 ug/m3
2021-07-29 12:00 29.29 ug/m3 0.31 ug/m3 89.47 ug/m3 44.01 ug/m3 13.27 ug/m3 0.27 mg/m3 33.44 C 29.96 % 1,014.82 mbar 2.61 m/s 313.55 Deg 8.52 ug/m3 0.86 ug/m3
2021-07-29 11:00 27.96 ug/m3 0.31 ug/m3 87.22 ug/m3 45.66 ug/m3 21.71 ug/m3 0.19 mg/m3 33.3 C 27.84 % 1,014.85 mbar 2.26 m/s 305.88 Deg 7.46 ug/m3 1.5 ug/m3
2021-07-29 10:00 36.45 ug/m3 0.43 ug/m3 77.12 ug/m3 65.12 ug/m3 23.38 ug/m3 0.29 mg/m3 32.75 C 27.26 % 1,014.88 mbar 1.93 m/s 326.13 Deg 14.56 ug/m3 1.21 ug/m3
2021-07-29 09:00 41.35 ug/m3 0.4 ug/m3 72.7 ug/m3 80.46 ug/m3 26.85 ug/m3 0.26 mg/m3 32.89 C 21.69 % 1,014.56 mbar 1.84 m/s 310.8 Deg 11.39 ug/m3 1.75 ug/m3
2021-07-29 08:00 67.93 ug/m3 0.77 ug/m3 43.18 ug/m3 89.78 ug/m3 23.69 ug/m3 0.48 mg/m3 32.17 C 23.07 % 1,014.33 mbar 1.09 m/s 296.77 Deg 25.45 ug/m3 6.56 ug/m3
2021-07-29 07:00 105.02 ug/m3 2.37 ug/m3 10.38 ug/m3 85.63 ug/m3 30.87 ug/m3 1.28 mg/m3 29.99 C 33.57 % 1,013.90 mbar 0.06 m/s 129.71 Deg 116.93 ug/m3 11 ug/m3
2021-07-29 06:00 90.77 ug/m3 1.87 ug/m3 3.33 ug/m3 71.82 ug/m3 18.27 ug/m3 0.95 mg/m3 27.82 C 39.51 % 1,013.67 mbar 0.21 m/s 39.63 Deg 95.54 ug/m3 7.61 ug/m3
2021-07-29 05:00 66.19 ug/m3 1.17 ug/m3 3.7 ug/m3 47.04 ug/m3 18.53 ug/m3 0.54 mg/m3 27.44 C 41.66 % 1,013.37 mbar 0.38 m/s 217.22 Deg 42.77 ug/m3 7.19 ug/m3
2021-07-29 04:00 45.42 ug/m3 0.57 ug/m3 23.01 ug/m3 46.01 ug/m3 14.34 ug/m3 0.36 mg/m3 28 C 37.65 % 1,013.24 mbar 0.45 m/s 251.94 Deg 5.58 ug/m3 6.21 ug/m3
2021-07-29 03:00 38.4 ug/m3 0.45 ug/m3 34.54 ug/m3 46.65 ug/m3 5.36 ug/m3 0.34 mg/m3 28.4 C 37.74 % 1,013.42 mbar 0.46 m/s 265.92 Deg 3.51 ug/m3 5.16 ug/m3
2021-07-29 02:00 29.66 ug/m3 0.34 ug/m3 52.25 ug/m3 35.94 ug/m3 7.21 ug/m3 0.41 mg/m3 28.85 C 37.28 % 1,013.71 mbar 0.19 m/s 169.13 Deg 2.12 ug/m3 2.6 ug/m3
2021-07-29 01:00 17.43 ug/m3 0.15 ug/m3 81.58 ug/m3 31.35 ug/m3 6.45 ug/m3 0.23 mg/m3 29.13 C 35.11 % 1,014.05 mbar 0.84 m/s 228.13 Deg -0.21 ug/m3 1.05 ug/m3
2021-07-29 00:00 33.21 ug/m3 0.23 ug/m3 65.95 ug/m3 26.88 ug/m3 9.72 ug/m3 0.3 mg/m3 29.34 C 34.73 % 1,014.41 mbar 0.58 m/s 257.34 Deg 3.81 ug/m3 1.26 ug/m3
2021-07-28 23:00 20.89 ug/m3 0.13 ug/m3 79.59 ug/m3 34.61 ug/m3 15.96 ug/m3 0.26 mg/m3 29.18 C 39.63 % 1,014.52 mbar 0.66 m/s 249.53 Deg -0.07 ug/m3 1.78 ug/m3
2021-07-28 22:00 26.62 ug/m3 0.21 ug/m3 78.33 ug/m3 42.48 ug/m3 15.67 ug/m3 0.32 mg/m3 29.02 C 45.58 % 1,014.75 mbar 0.96 m/s 289.72 Deg 3.9 ug/m3 0.82 ug/m3
2021-07-28 21:00 22.39 ug/m3 0.19 ug/m3 82.1 ug/m3 31.97 ug/m3 19.75 ug/m3 0.3 mg/m3 29.17 C 45.66 % 1,014.82 mbar 1.35 m/s 258.43 Deg 1.9 ug/m3 0.97 ug/m3
2021-07-28 20:00 30.83 ug/m3 0.26 ug/m3 77.74 ug/m3 41.78 ug/m3 13.06 ug/m3 0.34 mg/m3 29.63 C 43.88 % 1,014.61 mbar 1.23 m/s 295.38 Deg 4.5 ug/m3 1.78 ug/m3
2021-07-28 19:00 33.64 ug/m3 0.29 ug/m3 82.62 ug/m3 45.75 ug/m3 8.13 ug/m3 0.38 mg/m3 30.54 C 41.89 % 1,014.52 mbar 1.59 m/s 328.67 Deg 7.41 ug/m3 0.94 ug/m3
2021-07-28 18:00 26.14 ug/m3 0.25 ug/m3 89.29 ug/m3 40.75 ug/m3 11.07 ug/m3 0.29 mg/m3 31.7 C 36.59 % 1,014.29 mbar 2.1 m/s 325.2 Deg 5.46 ug/m3 1.52 ug/m3
2021-07-28 17:00 29.74 ug/m3 0.29 ug/m3 86.48 ug/m3 30.44 ug/m3 9.48 ug/m3 0.31 mg/m3 32.72 C 33.89 % 1,014.27 mbar 2.01 m/s 334.18 Deg 10.97 ug/m3 0.86 ug/m3
2021-07-28 16:00 29.68 ug/m3 0.38 ug/m3 88.56 ug/m3 32.67 ug/m3 13.96 ug/m3 0.33 mg/m3 33.07 C 30.67 % 1,014.54 mbar 1.83 m/s 338.7 Deg 12.44 ug/m3 1.34 ug/m3
2021-07-28 15:00 27.44 ug/m3 0.31 ug/m3 89.13 ug/m3 27.95 ug/m3 10.33 ug/m3 0.26 mg/m3 32.67 C 29.29 % 1,014.88 mbar 2.25 m/s 329.32 Deg 9.53 ug/m3 0.58 ug/m3
2021-07-28 14:00 32.38 ug/m3 0.37 ug/m3 85.25 ug/m3 26.14 ug/m3 6.26 ug/m3 0.29 mg/m3 32.62 C 28.25 % 1,015.26 mbar 2.1 m/s 254.6 Deg 16.02 ug/m3 0.92 ug/m3
2021-07-28 13:00 34.91 ug/m3 0.38 ug/m3 89.14 ug/m3 17.63 ug/m3 7.84 ug/m3 0.28 mg/m3 32.8 C 26.22 % 1,015.39 mbar 1.99 m/s 336.32 Deg 14.75 ug/m3 0.76 ug/m3
2021-07-28 12:00 23.94 ug/m3 0.32 ug/m3 96.24 ug/m3 22.18 ug/m3 13.82 ug/m3 0.25 mg/m3 32.19 C 25.31 % 1,015.52 mbar 2.22 m/s 329.97 Deg 10.64 ug/m3 0.63 ug/m3
2021-07-28 11:00 24.61 ug/m3 0.37 ug/m3 89.38 ug/m3 25.71 ug/m3 11.59 ug/m3 0.17 mg/m3 32.15 C 24.67 % 1,015.62 mbar 1.92 m/s 330.42 Deg 14.31 ug/m3 1 ug/m3
2021-07-28 10:00 37.18 ug/m3 0.32 ug/m3 83.39 ug/m3 42.55 ug/m3 13.37 ug/m3 0.26 mg/m3 31.92 C 24.56 % 1,015.63 mbar 1.88 m/s 325.3 Deg 11.8 ug/m3 0.98 ug/m3
2021-07-28 09:00 42.82 ug/m3 0.38 ug/m3 69.11 ug/m3 53.34 ug/m3 17.26 ug/m3 0.27 mg/m3 31.4 C 26.68 % 1,015.37 mbar 1.64 m/s 308.28 Deg 16.84 ug/m3 1.52 ug/m3
2021-07-28 08:00 65.63 ug/m3 0.73 ug/m3 49.58 ug/m3 63.75 ug/m3 26.79 ug/m3 0.46 mg/m3 30.47 C 29.13 % 1,015.50 mbar 1.01 m/s 258.28 Deg 28.1 ug/m3 6.59 ug/m3

It is to be noted that the data is provisional and subject to quality assurance procedures. For validated data kindly refer your request to contact.air@era.org.mt